• Join FlightAware (Why Join?)
  • Login
  • US Flag 
12:07PM EDT


 

Airport Tracker/Info


-or-


 

Live Flight TrackerFlight Track Log ✈ N12123 ✈ 21-Apr-2013 ✈ KUAO - KUAO

Flight Track Log - Related Links

Times and Time Zones

All times are in EDT time to prevent confusion due to time zone crossing. See the N12123 flight status page for this flight to view local times or setup timezone preferences in your user account.

Time Position Orientation Groundspeed Altitude Reporting Facility
EDT Latitude Longitude Course Direction KTS MPH feet Rate Location/Type
07:17PM 44.5544 -123.0303 215° Southwest 117 135 2,500  Level Seattle Center
07:18PM 44.5858 -123.0239 North 116 133 2,600 420 Climbing Seattle Center
07:19PM 44.6136 -123.0164 11° North 107 123 3,400 720 Climbing Seattle Center
07:20PM 44.6400 -123.0056 16° North 100 115 4,100 660 Climbing Seattle Center
07:21PM 44.6656 -122.9958 15° North 98 113 4,800 660 Climbing Seattle Center
07:22PM 45.0965 -122.8304 215° Southwest  Level Estimated
07:22PM 44.6897 -122.9864 16° North 93 107 5,500  Level Seattle Center
07:23PM 44.7128 -122.9781 14° North 89 102 6,100 240 Climbing Seattle Center
07:24PM 44.7400 -122.9697 12° North 96 110 6,100  Level Seattle Center
07:25PM 44.7722 -122.9586 14° North 113 130 6,100 -60 Level Seattle Center
07:26PM 44.8028 -122.9461 16° North 115 132 6,000  Descending Seattle Center
07:27PM 44.8336 -122.9353 14° North 115 132 6,100  Climbing Seattle Center
07:28PM 44.8622 -122.9253 14° North 110 127 6,000 -60 Descending Seattle Center
07:29PM 44.8981 -122.9128 14° North 110 127 6,000  Level Seattle Center
07:30PM 44.9281 -122.9000 17° North 111 128 6,000  Level Seattle Center
07:31PM 44.9572 -122.8847 20° North 113 130 6,000  Level Seattle Center
07:32PM 44.9969 -122.8700 15° North 120 138 6,000  Level Seattle Center
07:33PM 45.0175 -122.8647 10° North 110 127 6,000  Level Seattle Center
07:34PM 45.0478 -122.8556 12° North 110 127 6,100  Climbing Seattle Center
07:35PM 45.0783 -122.8411 18° North 113 130 6,000 -120 Descending Seattle Center
07:36PM 45.1092 -122.8258 19° North 117 135 5,900 -300 Descending Seattle Center
07:37PM 45.1400 -122.8083 22° Northeast 119 137 5,500 -480 Descending Seattle Center
07:38PM 45.1672 -122.7844 32° Northeast 117 135 5,000 -600 Descending Seattle Center
07:39PM 45.1967 -122.7592 31° Northeast 122 140 4,300 -540 Descending Seattle Center
07:40PM 45.2289 -122.7308 32° Northeast 126 145 4,000 -180 Descending Seattle Center
07:41PM 45.2564 -122.7075 31° Northeast 119 137 4,000  Level Seattle Center
07:42PM 45.2864 -122.6831 30° Northeast 122 140 4,000  Level Seattle Center
07:43PM 45.3183 -122.6500 36° Northeast 124 143 4,000 -60 Level Seattle Center
07:44PM 45.3486 -122.6486 North 115 132 3,900 -480 Descending Seattle Center
07:45PM 45.3892 -122.6567 352° North 123 142 3,000 -480 Descending Seattle Center
07:46PM 45.4136 -122.6592 356° North 113 130 3,000 -60 Level Seattle Center
07:47PM 45.4414 -122.6775 335° Northwest 124 143 2,900  Descending Seattle Center
07:48PM 45.4461 -122.7136 281° West 107 123 3,000 -240 Climbing Seattle Center
07:49PM 45.4339 -122.7492 244° Southwest 121 139 2,500 -240 Descending Seattle Center
07:50PM 45.4050 -122.7525 185° South 108 124 2,600 60 Climbing Seattle Center